createdAt,value
2022-09-16T00:02:06.632Z,7.23
2022-09-16T00:06:04.863Z,6.27
2022-09-16T00:13:57.721Z,8.43
2022-09-16T00:20:08.905Z,8.03
2022-09-16T00:23:27.069Z,8.83
2022-09-16T00:27:20.618Z,7.97
2022-09-16T00:30:59.277Z,9.60
2022-09-16T00:59:21.265Z,6.40
2022-09-16T01:03:21.810Z,10.13
2022-09-16T01:15:52.938Z,13.47
2022-09-16T01:19:49.471Z,8.87
2022-09-16T01:35:59.193Z,9.17
2022-09-16T01:39:56.303Z,5.77
2022-09-16T01:47:36.843Z,10.77
2022-09-16T01:50:12.871Z,13.73
2022-09-16T01:52:47.943Z,7.47
2022-09-16T01:55:25.083Z,6.17
2022-09-16T01:57:59.981Z,6.80
2022-09-16T02:00:33.338Z,5.93
2022-09-16T02:03:08.686Z,5.77
2022-09-16T02:07:18.462Z,4.60
2022-09-16T02:15:21.485Z,8.60
2022-09-16T02:21:18.515Z,8.03
2022-09-16T02:36:18.322Z,9.20
2022-09-16T02:39:51.309Z,7.17
2022-09-16T02:42:19.832Z,10.20
2022-09-16T02:44:48.406Z,7.60
2022-09-16T02:47:23.670Z,10.70
2022-09-16T02:54:21.701Z,9.67
2022-09-16T03:00:21.424Z,10.47
2022-09-16T03:03:50.131Z,7.93
2022-09-16T03:11:12.914Z,6.20
2022-09-16T03:18:59.723Z,12.73
2022-09-16T03:22:26.213Z,6.07
2022-09-16T03:30:07.913Z,5.50
2022-09-16T03:33:35.997Z,7.47
2022-09-16T03:37:35.939Z,8.40
2022-09-16T03:41:05.469Z,7.97
2022-09-16T03:47:56.857Z,8.27
2022-09-16T03:50:31.656Z,9.20
2022-09-16T03:53:31.332Z,6.10
2022-09-16T03:56:09.467Z,8.93
2022-09-16T03:58:46.730Z,6.80
2022-09-16T04:01:19.381Z,9.70
2022-09-16T04:04:00.323Z,10.10
2022-09-16T04:06:55.776Z,6.87
2022-09-16T04:09:35.420Z,5.17
2022-09-16T04:12:09.158Z,8.40
2022-09-16T04:14:43.515Z,6.80
2022-09-16T04:17:12.262Z,7.00
2022-09-16T04:19:40.884Z,10.57
2022-09-16T04:22:14.505Z,4.73
2022-09-16T04:24:43.639Z,5.67
2022-09-16T04:27:23.037Z,8.87
2022-09-16T04:29:55.484Z,7.73
2022-09-16T04:32:29.400Z,6.70
2022-09-16T04:35:00.668Z,6.60
2022-09-16T04:37:49.919Z,7.33
2022-09-16T04:40:29.481Z,10.00
2022-09-16T04:43:20.634Z,8.93
2022-09-16T04:45:59.607Z,9.53
2022-09-16T04:52:56.704Z,11.17
2022-09-16T04:59:52.958Z,7.70
2022-09-16T05:02:47.612Z,5.47
2022-09-16T05:05:30.068Z,6.87
2022-09-16T05:08:08.241Z,7.83
2022-09-16T05:10:48.639Z,8.00
2022-09-16T05:13:33.301Z,6.30
2022-09-16T05:16:17.309Z,8.07
2022-09-16T05:19:05.080Z,5.40
2022-09-16T05:21:46.421Z,5.03
2022-09-16T05:24:35.856Z,7.03
2022-09-16T05:27:12.157Z,4.67
2022-09-16T05:30:28.720Z,3.57
2022-09-16T05:33:15.736Z,4.63
2022-09-16T05:35:46.178Z,5.03
2022-09-16T05:38:15.314Z,9.57
2022-09-16T05:40:44.118Z,3.57
2022-09-16T05:43:12.828Z,7.20
2022-09-16T05:46:25.110Z,6.93
2022-09-16T05:53:26.020Z,6.97
2022-09-16T05:56:50.425Z,5.30
2022-09-16T06:00:25.027Z,5.43
2022-09-16T06:07:49.361Z,5.00
2022-09-16T06:11:40.233Z,7.33
2022-09-16T06:18:31.513Z,4.77
2022-09-16T06:22:46.093Z,6.23
2022-09-16T06:29:43.986Z,4.20
2022-09-16T06:32:29.258Z,5.53
2022-09-16T06:35:14.806Z,7.70
2022-09-16T06:38:00.349Z,5.90
2022-09-16T06:40:55.191Z,8.87
2022-09-16T06:43:36.268Z,12.50
2022-09-16T06:46:34.244Z,9.23
2022-09-16T06:49:37.826Z,8.17
2022-09-16T06:56:08.785Z,7.07
2022-09-16T06:58:52.109Z,8.40
2022-09-16T07:02:04.516Z,8.80
2022-09-16T07:09:32.580Z,7.73
2022-09-16T07:12:18.795Z,5.50
2022-09-16T07:14:57.137Z,7.53
2022-09-16T07:17:27.568Z,8.87
2022-09-16T07:19:57.957Z,8.43
2022-09-16T07:22:26.734Z,8.57
2022-09-16T07:24:55.209Z,11.50
2022-09-16T07:27:25.765Z,9.03
2022-09-16T07:30:00.290Z,9.20
2022-09-16T07:32:30.485Z,8.83
2022-09-16T07:34:58.955Z,11.27
2022-09-16T07:37:27.641Z,7.07
2022-09-16T07:39:59.431Z,5.67
2022-09-16T07:42:30.997Z,5.70
2022-09-16T07:44:59.647Z,7.77
2022-09-16T07:47:30.133Z,7.60
2022-09-16T07:49:59.760Z,8.07
2022-09-16T07:52:32.276Z,9.43
2022-09-16T07:55:11.268Z,7.23
2022-09-16T07:57:43.924Z,6.93
2022-09-16T08:00:20.044Z,7.67
2022-09-16T08:02:50.555Z,6.77
2022-09-16T08:05:19.502Z,9.60
2022-09-16T08:07:48.361Z,7.00
2022-09-16T08:10:22.182Z,8.90
2022-09-16T08:12:59.493Z,7.57
2022-09-16T08:15:27.890Z,8.17
2022-09-16T08:17:57.450Z,8.03
2022-09-16T08:20:29.607Z,8.00
2022-09-16T08:22:58.205Z,7.17
2022-09-16T08:25:26.625Z,6.63
2022-09-16T08:27:57.803Z,8.80
2022-09-16T08:30:26.402Z,7.63
2022-09-16T08:32:59.888Z,8.27
2022-09-16T08:35:30.353Z,7.23
2022-09-16T08:38:04.631Z,7.53
2022-09-16T08:40:40.335Z,9.20
2022-09-16T08:43:21.213Z,6.37
2022-09-16T08:45:57.739Z,7.90
2022-09-16T08:48:39.201Z,6.60
2022-09-16T08:51:10.454Z,6.27
2022-09-16T08:53:44.266Z,6.17
2022-09-16T08:56:17.264Z,7.77
2022-09-16T08:58:48.902Z,6.37
2022-09-16T09:01:25.465Z,7.77
2022-09-16T09:03:56.640Z,8.63
2022-09-16T09:06:47.120Z,6.07
2022-09-16T09:09:39.748Z,7.77
2022-09-16T09:12:15.719Z,5.27
2022-09-16T09:14:57.790Z,6.77
2022-09-16T09:17:37.023Z,7.97
2022-09-16T09:20:32.193Z,5.77
2022-09-16T09:23:15.680Z,6.87
2022-09-16T09:25:56.345Z,8.33
2022-09-16T09:28:54.040Z,5.07
2022-09-16T09:31:31.122Z,6.53
2022-09-16T09:34:17.567Z,5.47
2022-09-16T09:37:09.513Z,6.40
2022-09-16T09:39:56.232Z,4.37
2022-09-16T09:42:29.423Z,7.37
2022-09-16T09:45:03.996Z,5.70
2022-09-16T09:47:37.276Z,6.63
2022-09-16T09:50:21.523Z,5.60
2022-09-16T09:52:59.085Z,7.83
2022-09-16T09:55:33.064Z,6.17
2022-09-16T09:58:10.712Z,5.67
2022-09-16T10:00:39.548Z,10.03
2022-09-16T10:03:14.610Z,5.77
2022-09-16T10:05:43.578Z,7.80
2022-09-16T10:08:20.058Z,7.03
2022-09-16T10:10:52.833Z,7.17
2022-09-16T10:13:22.699Z,6.17
2022-09-16T10:15:55.675Z,7.53
2022-09-16T10:18:32.502Z,6.80
2022-09-16T10:21:12.230Z,7.87
2022-09-16T10:23:56.238Z,8.97
2022-09-16T10:26:32.416Z,6.90
2022-09-16T10:29:25.302Z,4.90
2022-09-16T10:32:04.287Z,5.70
2022-09-16T10:34:42.424Z,5.87
2022-09-16T10:37:33.830Z,5.60
2022-09-16T10:40:07.861Z,4.97
2022-09-16T10:42:48.894Z,7.47
2022-09-16T10:45:31.710Z,6.57
2022-09-16T10:48:19.567Z,6.77
2022-09-16T10:51:07.530Z,8.30
2022-09-16T10:53:48.932Z,6.40
2022-09-16T10:56:28.043Z,8.53
2022-09-16T10:59:08.152Z,5.27
2022-09-16T11:02:05.953Z,5.97
2022-09-16T11:05:02.817Z,6.93
2022-09-16T11:07:56.614Z,5.03
2022-09-16T11:10:39.806Z,4.87
2022-09-16T11:13:56.628Z,4.10
2022-09-16T11:16:58.465Z,5.87
2022-09-16T11:19:45.472Z,5.07
2022-09-16T11:22:27.507Z,4.87
2022-09-16T11:25:29.374Z,5.77
2022-09-16T11:28:16.911Z,4.90
2022-09-16T11:30:57.473Z,5.57
2022-09-16T11:33:34.907Z,5.60
2022-09-16T11:36:21.838Z,5.17
2022-09-16T11:39:08.942Z,3.77
2022-09-16T11:41:44.254Z,3.53
2022-09-16T11:44:27.147Z,5.30
2022-09-16T11:47:11.493Z,5.50
2022-09-16T11:49:56.860Z,3.00
2022-09-16T11:52:46.537Z,5.00
2022-09-16T11:55:33.550Z,4.00
2022-09-16T11:58:06.766Z,3.23
2022-09-16T12:00:38.371Z,3.13
2022-09-16T12:03:17.991Z,5.03
2022-09-16T12:05:53.646Z,4.33
2022-09-16T12:08:26.263Z,2.97
2022-09-16T12:10:58.432Z,4.80
2022-09-16T12:13:36.177Z,4.60
2022-09-16T12:16:09.725Z,5.67
2022-09-16T12:18:43.974Z,3.90
2022-09-16T12:21:17.403Z,3.90
2022-09-16T12:23:57.059Z,4.43
2022-09-16T12:26:31.890Z,3.43
2022-09-16T12:29:08.980Z,3.57
2022-09-16T12:31:42.450Z,3.73
2022-09-16T12:34:16.655Z,4.57
2022-09-16T12:36:51.484Z,4.87
2022-09-16T12:39:20.857Z,2.90
2022-09-16T12:42:20.506Z,5.37
2022-09-16T12:45:17.904Z,3.50
2022-09-16T12:48:00.000Z,5.73
2022-09-16T12:51:09.907Z,5.30
2022-09-16T12:54:02.938Z,3.63
2022-09-16T12:56:50.866Z,2.93
2022-09-16T12:59:58.110Z,5.67
2022-09-16T13:02:34.143Z,2.07
2022-09-16T13:05:13.314Z,4.00
2022-09-16T13:07:43.984Z,4.47
2022-09-16T13:10:40.584Z,5.70
2022-09-16T13:13:20.171Z,2.87
2022-09-16T13:15:57.568Z,3.63
2022-09-16T13:18:41.554Z,3.03
2022-09-16T13:21:23.631Z,6.60
2022-09-16T13:24:02.486Z,5.30
2022-09-16T13:26:41.648Z,3.17
2022-09-16T13:29:44.320Z,3.83
2022-09-16T13:32:39.779Z,4.57
2022-09-16T13:35:24.635Z,4.73
2022-09-16T13:38:04.938Z,4.73
2022-09-16T13:40:36.240Z,2.20
2022-09-16T13:43:16.905Z,2.63
2022-09-16T13:46:02.724Z,2.37
2022-09-16T13:48:40.577Z,3.63
2022-09-16T13:51:18.416Z,3.17
2022-09-16T13:53:49.508Z,3.93
2022-09-16T13:56:51.369Z,4.50
2022-09-16T13:59:40.314Z,2.50
2022-09-16T14:02:46.744Z,3.43
2022-09-16T14:06:23.501Z,2.20
2022-09-16T14:09:07.884Z,3.13
2022-09-16T14:12:10.975Z,4.73
2022-09-16T14:15:03.779Z,3.37
2022-09-16T14:17:48.971Z,1.73
2022-09-16T14:20:29.448Z,2.83
2022-09-16T14:23:23.571Z,2.20
2022-09-16T14:25:55.698Z,3.83
2022-09-16T14:28:27.875Z,3.00
2022-09-16T14:31:41.772Z,3.77
2022-09-16T14:34:26.996Z,4.00
2022-09-16T14:37:20.119Z,3.50
2022-09-16T14:40:19.825Z,2.80
2022-09-16T14:43:35.792Z,1.60
2022-09-16T14:46:15.205Z,5.63
2022-09-16T14:48:44.566Z,2.23
2022-09-16T14:51:19.457Z,4.97
2022-09-16T14:54:18.635Z,3.97
2022-09-16T14:57:03.118Z,3.40
2022-09-16T14:59:36.965Z,3.20
2022-09-16T15:02:28.533Z,2.33
2022-09-16T15:05:45.328Z,2.00
2022-09-16T15:08:34.892Z,2.93
2022-09-16T15:11:29.778Z,3.67
2022-09-16T15:14:10.065Z,2.13
2022-09-16T15:16:53.949Z,2.67
2022-09-16T15:19:43.246Z,2.27
2022-09-16T15:22:18.775Z,2.40
2022-09-16T15:28:54.652Z,2.07
2022-09-16T15:31:37.721Z,2.60
2022-09-16T15:34:22.225Z,2.70
2022-09-16T15:39:42.913Z,3.60
2022-09-16T15:42:31.109Z,1.20
2022-09-16T15:45:25.361Z,2.77
2022-09-16T15:48:02.894Z,1.57
2022-09-16T15:50:54.828Z,1.93
2022-09-16T15:53:39.001Z,1.90
2022-09-16T15:56:26.660Z,7.23
2022-09-16T15:58:59.136Z,3.30
2022-09-16T16:01:52.540Z,1.50
2022-09-16T16:04:30.000Z,3.10
2022-09-16T16:07:01.020Z,3.10
2022-09-16T16:09:41.628Z,2.73
2022-09-16T16:12:18.411Z,2.63
2022-09-16T16:15:48.898Z,3.53
2022-09-16T16:18:33.269Z,1.90
2022-09-16T16:21:49.650Z,1.53
2022-09-16T16:25:03.860Z,1.57
2022-09-16T16:27:47.890Z,2.97
2022-09-16T16:30:18.708Z,4.57
2022-09-16T16:33:54.345Z,4.20
2022-09-16T16:36:32.771Z,1.50
2022-09-16T16:39:01.698Z,1.30
2022-09-16T16:41:33.984Z,2.60
2022-09-16T16:44:07.545Z,3.20
2022-09-16T16:46:46.548Z,1.53
2022-09-16T16:49:16.285Z,2.03
2022-09-16T16:51:50.852Z,2.60
2022-09-16T16:54:43.746Z,3.53
2022-09-16T16:57:44.651Z,1.77
2022-09-16T17:00:16.573Z,3.33
2022-09-16T17:02:56.875Z,1.20
2022-09-16T17:05:26.260Z,2.33
2022-09-16T17:08:02.591Z,3.60
2022-09-16T17:10:31.997Z,1.90
2022-09-16T17:13:03.314Z,2.00
2022-09-16T17:15:33.972Z,3.23
2022-09-16T17:18:29.407Z,1.13
2022-09-16T17:21:34.037Z,1.63
2022-09-16T17:24:03.422Z,1.80
2022-09-16T17:26:35.204Z,2.20
2022-09-16T17:29:11.710Z,1.33
2022-09-16T17:31:46.500Z,1.70
2022-09-16T17:34:16.645Z,1.63
2022-09-16T17:36:57.174Z,1.97
2022-09-16T17:43:32.754Z,1.23
2022-09-16T17:46:02.745Z,2.23
2022-09-16T17:48:33.362Z,1.60
2022-09-16T17:51:12.103Z,0.97
2022-09-16T17:54:12.087Z,0.80
2022-09-16T17:56:50.204Z,1.33
2022-09-16T17:59:21.075Z,1.37
2022-09-16T18:01:49.926Z,4.87
2022-09-16T18:04:29.243Z,3.17
2022-09-16T18:07:00.447Z,1.67
2022-09-16T18:09:34.363Z,1.20
2022-09-16T18:12:05.195Z,2.07
2022-09-16T18:14:34.089Z,4.80
2022-09-16T18:17:03.620Z,2.17
2022-09-16T18:19:33.839Z,2.23
2022-09-16T18:22:02.403Z,1.40
2022-09-16T18:24:31.281Z,0.60
2022-09-16T18:27:05.644Z,4.00
2022-09-16T18:29:34.626Z,0.93
2022-09-16T18:32:06.249Z,1.20
2022-09-16T18:34:39.652Z,1.40
2022-09-16T18:37:18.125Z,2.60
2022-09-16T18:39:50.862Z,1.17
2022-09-16T18:42:41.721Z,3.53
2022-09-16T18:45:51.845Z,2.10
2022-09-16T18:48:45.989Z,5.67
2022-09-16T18:51:22.888Z,1.57
2022-09-16T18:53:54.357Z,1.37
2022-09-16T18:56:25.957Z,2.60
2022-09-16T18:59:19.736Z,4.67
2022-09-16T19:01:55.028Z,2.87
2022-09-16T19:04:25.565Z,1.20
2022-09-16T19:07:08.769Z,2.47
2022-09-16T19:09:51.291Z,6.13
2022-09-16T19:12:24.914Z,9.23
2022-09-16T19:19:05.594Z,4.87
2022-09-16T19:21:37.350Z,3.67
2022-09-16T19:24:14.417Z,2.03
2022-09-16T19:26:57.368Z,2.27
2022-09-16T19:29:32.203Z,1.73
2022-09-16T19:32:07.185Z,0.60
2022-09-16T19:34:36.311Z,2.60
2022-09-16T19:37:05.166Z,1.67
2022-09-16T19:39:37.042Z,0.90
2022-09-16T19:42:12.053Z,2.27
2022-09-16T19:44:43.269Z,2.53
2022-09-16T19:47:12.134Z,2.33
2022-09-16T19:49:43.756Z,2.53
2022-09-16T19:52:12.738Z,1.33
2022-09-16T19:54:44.828Z,1.43
2022-09-16T19:57:14.810Z,2.87
2022-09-16T19:59:54.201Z,2.40
2022-09-16T20:02:28.131Z,2.57
2022-09-16T20:04:56.537Z,3.60
2022-09-16T20:07:25.637Z,1.97
2022-09-16T20:10:03.093Z,0.97
2022-09-16T20:12:47.527Z,0.80
2022-09-16T20:15:18.517Z,1.37
2022-09-16T20:17:47.608Z,1.70
2022-09-16T20:20:49.193Z,1.57
2022-09-16T20:23:22.465Z,2.70
2022-09-16T20:26:59.013Z,1.40
2022-09-16T20:42:32.560Z,3.30
2022-09-16T20:46:00.078Z,1.57
2022-09-16T20:48:45.268Z,1.50
2022-09-16T20:52:19.022Z,1.60
2022-09-16T20:55:16.102Z,1.30
2022-09-16T20:57:57.663Z,1.73
2022-09-16T21:00:39.673Z,1.30
2022-09-16T21:03:08.288Z,2.63
2022-09-16T21:05:37.103Z,1.33
2022-09-16T21:09:05.635Z,1.07
2022-09-16T21:12:47.580Z,2.10
2022-09-16T21:15:58.195Z,2.83
2022-09-16T21:18:37.848Z,1.93
2022-09-16T21:21:29.367Z,1.57
2022-09-16T21:27:28.834Z,1.20
2022-09-16T21:30:07.804Z,1.73
2022-09-16T21:32:38.384Z,2.77
2022-09-16T21:35:07.950Z,1.83
2022-09-16T21:37:36.434Z,2.40
2022-09-16T21:40:05.349Z,1.60
2022-09-16T21:42:35.617Z,2.93
2022-09-16T21:45:04.823Z,2.50
2022-09-16T21:47:33.638Z,2.27
2022-09-16T21:50:06.397Z,1.07
2022-09-16T21:52:35.038Z,3.83
2022-09-16T21:55:03.563Z,3.17
2022-09-16T21:57:32.194Z,2.73
2022-09-16T22:00:01.014Z,3.13
2022-09-16T22:02:38.024Z,1.27
2022-09-16T22:05:09.390Z,3.37
2022-09-16T22:07:37.975Z,4.13
2022-09-16T22:10:24.004Z,1.33
2022-09-16T22:12:52.655Z,1.07
2022-09-16T22:15:24.643Z,2.07
2022-09-16T22:24:30.719Z,1.20
2022-09-16T22:27:20.576Z,1.50
2022-09-16T22:31:07.984Z,4.67
2022-09-16T22:33:54.921Z,4.20
2022-09-16T22:36:25.528Z,1.27
2022-09-16T22:38:58.783Z,1.03
2022-09-16T22:41:31.581Z,2.77
2022-09-16T22:44:12.203Z,1.60
2022-09-16T22:47:50.491Z,2.77
2022-09-16T22:51:19.854Z,2.67
2022-09-16T22:54:25.310Z,2.43
2022-09-16T23:01:12.378Z,2.13
2022-09-16T23:04:07.223Z,1.30
2022-09-16T23:07:07.319Z,2.10
2022-09-16T23:09:54.071Z,1.80
2022-09-16T23:12:44.080Z,1.47
2022-09-16T23:41:41.511Z,1.80
2022-09-16T23:44:36.124Z,1.30
2022-09-16T23:47:27.568Z,3.03
2022-09-16T23:50:11.978Z,1.53
2022-09-16T23:53:23.396Z,2.13
2022-09-16T23:57:34.548Z,4.33
